Time;durP1;ratioP1;P1;durP2;ratioP2;P2;SDS_P1;SDS_P2;PMS_P1;PMS_P2;Temp;Humidity;BMP_temperature;BMP_pressure;BME280_temperature;BME280_humidity;BME280_pressure;Samples;Min_cycle;Max_cycle;Signal;HPM_P1;HPM_P2
2023/12/19 00:01:47;;;;;;;6.90;4.15;;;;;;;8.11;46.20;100218.91;5105471;28;20324;-66
2023/12/19 00:04:16;;;;;;;6.47;4.28;;;;;;;8.07;46.19;100217.25;5105759;28;20119;-66
2023/12/19 00:06:43;;;;;;;5.88;4.70;;;;;;;8.11;46.19;100210.13;5105981;28;20040;-66
2023/12/19 00:09:09;;;;;;;6.22;4.10;;;;;;;8.14;46.27;100215.28;5105081;28;20100;-66
2023/12/19 00:11:36;;;;;;;5.82;4.05;;;;;;;8.11;45.88;100215.41;5105927;28;20047;-67
2023/12/19 00:14:03;;;;;;;6.30;5.00;;;;;;;8.10;45.84;100219.81;5105234;28;20101;-67
2023/12/19 00:16:29;;;;;;;5.97;4.95;;;;;;;8.02;46.61;100214.78;5105334;28;20296;-67
2023/12/19 00:18:56;;;;;;;6.50;4.93;;;;;;;7.99;46.59;100228.06;5105552;28;20104;-66
2023/12/19 00:21:24;;;;;;;6.68;4.20;;;;;;;8.02;46.03;100220.03;5105578;28;20052;-68
2023/12/19 00:23:50;;;;;;;6.60;4.53;;;;;;;7.95;46.03;100226.44;5105540;28;20055;-68
2023/12/19 00:26:17;;;;;;;5.03;4.10;;;;;;;7.93;46.46;100222.09;5105528;28;20062;-67
2023/12/19 00:28:44;;;;;;;6.03;4.28;;;;;;;7.99;46.31;100225.41;5105223;28;20048;-68
2023/12/19 00:31:19;;;;;;;5.63;4.05;;;;;;;7.97;46.37;100223.75;5105136;28;20260;-68
2023/12/19 00:33:46;;;;;;;7.03;4.40;;;;;;;7.91;46.32;100224.78;5105499;28;20047;-69
2023/12/19 00:36:18;;;;;;;4.88;3.50;;;;;;;7.90;46.39;100225.69;5105135;28;20041;-67
2023/12/19 00:38:47;;;;;;;5.05;3.22;;;;;;;7.89;46.35;100223.09;5105413;28;20319;-68
2023/12/19 00:41:13;;;;;;;6.72;3.33;;;;;;;7.91;46.08;100222.16;5104303;28;20097;-68
2023/12/19 00:43:41;;;;;;;3.60;2.70;;;;;;;7.86;45.90;100212.66;5105348;28;20334;-68
2023/12/19 00:46:08;;;;;;;2.90;2.10;;;;;;;7.68;45.63;100169.22;5108183;28;20204;-69
2023/12/19 00:48:34;;;;;;;4.97;2.90;;;;;;;7.96;45.89;100212.31;5108806;28;20050;-68
2023/12/19 00:51:01;;;;;;;3.33;2.25;;;;;;;7.97;45.22;100215.81;5108973;28;20044;-68
2023/12/19 00:53:28;;;;;;;3.13;2.10;;;;;;;7.98;45.22;100210.50;5108669;28;20420;-68
2023/12/19 00:55:56;;;;;;;3.53;2.40;;;;;;;8.01;45.46;100212.19;5108185;28;20051;-68
2023/12/19 00:58:22;;;;;;;3.15;2.10;;;;;;;8.01;44.67;100213.03;5109147;28;20105;-69
2023/12/19 01:00:49;;;;;;;3.05;2.28;;;;;;;8.03;45.21;100211.22;5108814;28;20055;-68
2023/12/19 01:03:16;;;;;;;2.90;1.90;;;;;;;8.03;45.44;100205.06;5109029;28;20052;-68
2023/12/19 01:05:43;;;;;;;3.10;2.10;;;;;;;7.84;44.50;100172.25;5108675;28;20040;-68
2023/12/19 01:08:10;;;;;;;4.45;2.60;;;;;;;8.02;45.29;100206.84;5108624;28;20044;-68
2023/12/19 01:10:36;;;;;;;3.40;2.35;;;;;;;8.03;44.95;100203.28;5108597;28;20052;-68
2023/12/19 01:13:04;;;;;;;2.55;1.75;;;;;;;8.05;44.70;100203.25;5108354;28;20052;-69
2023/12/19 01:15:31;;;;;;;2.65;1.80;;;;;;;8.06;44.86;100202.34;5108457;28;20051;-68
2023/12/19 01:17:58;;;;;;;2.72;1.70;;;;;;;8.07;44.46;100192.63;5108490;28;20121;-67
2023/12/19 01:20:25;;;;;;;3.20;1.80;;;;;;;8.06;43.88;100204.13;5108125;28;20035;-68
2023/12/19 01:22:51;;;;;;;2.83;2.08;;;;;;;7.89;44.08;100171.19;5108653;28;20066;-68
2023/12/19 01:25:18;;;;;;;3.17;1.92;;;;;;;8.07;44.27;100197.91;5108056;28;20048;-68
2023/12/19 01:27:44;;;;;;;3.25;2.00;;;;;;;8.09;44.16;100185.53;5108572;28;20162;-68
2023/12/19 01:30:13;;;;;;;3.05;2.08;;;;;;;8.12;44.18;100193.34;5108238;28;20040;-68
2023/12/19 01:32:40;;;;;;;2.90;2.00;;;;;;;8.12;43.99;100191.59;5107668;28;20044;-69
2023/12/19 01:35:08;;;;;;;2.85;1.77;;;;;;;8.12;44.08;100191.59;5108141;28;20089;-68
2023/12/19 01:37:34;;;;;;;3.50;2.03;;;;;;;8.13;44.34;100181.88;5108118;28;20055;-67
2023/12/19 01:40:01;;;;;;;2.70;2.00;;;;;;;8.12;43.53;100177.50;5108032;28;20043;-67
2023/12/19 01:42:27;;;;;;;2.60;1.77;;;;;;;8.09;44.04;100173.19;5108001;28;20044;-67
2023/12/19 01:45:08;;;;;;;2.88;1.80;;;;;;;8.12;43.58;100169.59;5108005;28;20044;-68
2023/12/19 01:47:39;;;;;;;2.55;1.80;;;;;;;7.46;43.53;100074.03;5107114;28;20119;-68
2023/12/19 01:50:07;;;;;;;3.30;2.20;;;;;;;8.18;42.93;100158.84;5107852;28;20036;-68
2023/12/19 01:52:34;;;;;;;2.92;2.03;;;;;;;8.17;43.13;100157.09;5107547;28;20055;-68
2023/12/19 01:55:01;;;;;;;4.55;1.90;;;;;;;8.22;43.05;100158.69;5107672;28;20105;-69
2023/12/19 01:57:28;;;;;;;2.42;1.70;;;;;;;8.21;42.99;100156.09;5107506;28;20040;-68
2023/12/19 01:59:55;;;;;;;2.33;1.60;;;;;;;8.23;42.82;100149.84;5107362;28;20231;-68
2023/12/19 02:02:22;;;;;;;2.90;1.52;;;;;;;8.23;43.31;100144.56;5107636;28;20048;-68
2023/12/19 02:04:51;;;;;;;2.63;1.70;;;;;;;8.26;42.93;100141.81;5107833;28;20192;-68
2023/12/19 02:07:17;;;;;;;2.60;1.70;;;;;;;8.29;42.77;100146.13;5107799;28;20050;-68
2023/12/19 02:09:44;;;;;;;2.42;1.70;;;;;;;8.28;42.21;100150.56;5107477;28;20052;-68
2023/12/19 02:12:12;;;;;;;2.53;1.70;;;;;;;8.29;42.40;100148.78;5107199;28;20255;-69
2023/12/19 02:14:39;;;;;;;3.00;1.90;;;;;;;8.30;42.70;100147.88;5107945;28;20061;-68
2023/12/19 02:17:06;;;;;;;6.10;3.92;;;;;;;8.14;43.34;100133.44;5107257;28;20200;-68
2023/12/19 02:19:32;;;;;;;7.22;4.47;;;;;;;8.18;44.10;100156.19;5107885;28;20074;-68
2023/12/19 02:22:00;;;;;;;7.50;5.70;;;;;;;8.15;44.96;100154.50;5107323;28;20040;-68
2023/12/19 02:24:28;;;;;;;9.70;6.43;;;;;;;8.06;45.27;100160.09;5106956;28;20093;-68
2023/12/19 02:26:55;;;;;;;8.10;6.45;;;;;;;8.06;45.46;100153.94;5107138;28;20040;-68
2023/12/19 02:29:22;;;;;;;8.63;7.72;;;;;;;7.97;45.83;100147.19;5107119;28;20044;-68
2023/12/19 02:31:48;;;;;;;10.48;8.20;;;;;;;7.87;46.53;100146.63;5107132;28;20051;-67
2023/12/19 02:34:15;;;;;;;10.10;7.47;;;;;;;7.83;47.19;100139.72;5107121;28;20300;-68
2023/12/19 02:36:42;;;;;;;10.48;7.65;;;;;;;7.79;46.83;100132.81;5106877;28;20052;-68
2023/12/19 02:39:10;;;;;;;10.40;7.95;;;;;;;7.04;47.07;100036.63;5107250;28;20090;-69
2023/12/19 02:41:38;;;;;;;10.45;7.95;;;;;;;7.51;47.69;100139.84;5106617;28;20215;-68
2023/12/19 02:44:05;;;;;;;12.75;8.90;;;;;;;7.26;48.16;100130.00;5106560;28;20040;-68
2023/12/19 02:46:32;;;;;;;10.95;8.43;;;;;;;7.31;48.23;100130.72;5106787;28;20055;-68
2023/12/19 02:48:58;;;;;;;11.30;8.30;;;;;;;7.22;48.35;100130.13;5106483;28;20047;-67
2023/12/19 02:51:26;;;;;;;11.75;8.23;;;;;;;7.14;48.62;100134.75;5106392;28;20201;-68
2023/12/19 02:53:53;;;;;;;13.57;8.93;;;;;;;7.17;48.69;100127.63;5106704;28;20048;-68
2023/12/19 02:56:20;;;;;;;16.40;8.85;;;;;;;7.07;48.89;100128.78;5106254;28;20292;-67
2023/12/19 02:58:48;;;;;;;11.70;8.48;;;;;;;7.04;49.08;100139.41;5106432;28;20066;-68
2023/12/19 03:01:14;;;;;;;9.85;7.38;;;;;;;7.05;48.99;100138.50;5106543;28;20294;-68
2023/12/19 03:03:41;;;;;;;11.32;8.45;;;;;;;6.96;49.24;100134.38;5106503;28;20044;-67
2023/12/19 03:06:08;;;;;;;11.30;8.77;;;;;;;6.85;49.45;100138.22;5106460;28;20055;-68
2023/12/19 03:08:35;;;;;;;9.50;8.23;;;;;;;6.85;49.43;100132.94;5105255;28;20055;-67
2023/12/19 03:11:02;;;;;;;10.30;8.30;;;;;;;6.26;49.53;100030.06;5106079;28;20047;-68
2023/12/19 03:13:29;;;;;;;12.60;9.43;;;;;;;6.57;49.49;100119.63;5105996;28;20117;-68
2023/12/19 03:15:57;;;;;;;10.00;7.05;;;;;;;6.71;49.71;100138.56;5106194;28;20059;-68
2023/12/19 03:19:45;;;;;;;11.15;7.78;;;;;;;6.67;49.74;100143.03;5103914;27;20618;-69
2023/12/19 03:23:27;;;;;;;12.50;8.50;;;;;;;6.68;49.85;100134.22;5104113;27;20622;-69
2023/12/19 03:25:54;;;;;;;9.98;7.72;;;;;;;6.60;50.10;100140.59;5103138;28;20174;-69
2023/12/19 03:28:21;;;;;;;10.18;8.40;;;;;;;6.58;50.38;100143.28;5103391;28;20048;-68
2023/12/19 03:30:47;;;;;;;10.65;7.47;;;;;;;6.63;49.96;100146.66;5103060;28;20044;-69
2023/12/19 03:33:14;;;;;;;10.43;7.70;;;;;;;6.52;50.45;100147.84;5103327;28;20094;-66
2023/12/19 03:35:40;;;;;;;9.70;7.22;;;;;;;6.51;50.15;100149.63;5103200;28;20067;-66
2023/12/19 03:38:07;;;;;;;8.38;7.07;;;;;;;6.47;50.42;100150.59;5102872;28;20361;-66
2023/12/19 03:40:36;;;;;;;11.63;7.85;;;;;;;6.34;50.33;100104.44;5103124;28;20052;-66
2023/12/19 03:43:03;;;;;;;7.40;6.50;;;;;;;6.46;50.52;100116.41;5103010;28;20044;-66
2023/12/19 03:45:30;;;;;;;10.10;7.75;;;;;;;6.50;50.43;100110.16;5103311;28;20044;-66
2023/12/19 03:47:57;;;;;;;8.13;6.53;;;;;;;6.52;50.03;100098.66;5102985;28;20052;-67
2023/12/19 03:50:23;;;;;;;8.63;6.68;;;;;;;6.50;50.08;100108.38;5102947;28;20055;-66
2023/12/19 03:52:50;;;;;;;10.50;7.35;;;;;;;6.48;50.23;100115.47;5103208;28;20280;-66
2023/12/19 03:55:17;;;;;;;8.32;6.82;;;;;;;6.39;50.66;100119.19;5102814;28;20161;-65
2023/12/19 03:57:45;;;;;;;9.23;6.75;;;;;;;6.41;50.34;100113.91;5102833;28;20112;-66
2023/12/19 04:00:12;;;;;;;7.53;6.18;;;;;;;6.43;50.23;100117.34;5102783;28;20059;-66
2023/12/19 04:02:39;;;;;;;7.93;6.57;;;;;;;6.43;50.27;100125.25;5102322;28;20044;-66
2023/12/19 04:05:06;;;;;;;7.78;6.43;;;;;;;6.43;50.36;100128.75;5102355;28;20054;-66
2023/12/19 04:07:33;;;;;;;9.00;7.22;;;;;;;6.40;50.57;100127.97;5102585;28;20040;-66
2023/12/19 04:09:59;;;;;;;8.90;5.95;;;;;;;6.35;50.60;100128.09;5102816;28;20169;-66
2023/12/19 04:12:26;;;;;;;7.53;6.50;;;;;;;6.40;50.30;100114.78;5102540;28;20040;-66
2023/12/19 04:14:54;;;;;;;5.72;4.53;;;;;;;6.50;50.16;100112.78;5102486;28;20040;-66
2023/12/19 04:17:21;;;;;;;7.03;4.00;;;;;;;6.48;49.90;100110.19;5102425;28;20052;-66
2023/12/19 04:19:47;;;;;;;6.45;4.45;;;;;;;6.47;49.69;100118.13;5102137;28;20303;-66
2023/12/19 04:22:14;;;;;;;6.93;5.15;;;;;;;6.40;49.88;100112.16;5101809;28;20048;-66
2023/12/19 04:24:41;;;;;;;6.05;5.45;;;;;;;6.36;50.30;100107.88;5102025;28;20406;-67
2023/12/19 04:27:07;;;;;;;8.18;6.85;;;;;;;6.28;50.58;100101.94;5101986;28;20044;-66
2023/12/19 04:29:34;;;;;;;9.05;7.40;;;;;;;6.25;50.73;100097.63;5101902;28;20059;-66
2023/12/19 04:32:02;;;;;;;10.18;6.43;;;;;;;6.29;50.82;100101.03;5102036;28;20047;-66
2023/12/19 04:34:29;;;;;;;9.80;7.68;;;;;;;6.06;51.63;100099.88;5090005;28;20044;-66
2023/12/19 04:36:55;;;;;;;11.77;8.02;;;;;;;6.05;51.89;100103.41;5088470;28;20044;-66
2023/12/19 04:39:22;;;;;;;8.98;7.45;;;;;;;6.14;51.71;100098.81;5088179;28;20052;-66
2023/12/19 04:41:49;;;;;;;10.55;7.47;;;;;;;6.17;51.67;100098.72;5087958;28;20067;-66
2023/12/19 04:44:16;;;;;;;10.75;9.02;;;;;;;6.10;51.91;100084.88;5088081;28;20054;-66
2023/12/19 04:46:42;;;;;;;9.75;8.50;;;;;;;5.88;51.96;100044.22;5088020;28;20055;-66
2023/12/19 04:49:10;;;;;;;9.65;7.60;;;;;;;6.08;52.15;100078.78;5087943;28;20107;-66
2023/12/19 04:51:37;;;;;;;9.55;7.45;;;;;;;5.98;52.35;100080.78;5088273;28;20247;-69
2023/12/19 04:54:05;;;;;;;12.02;8.07;;;;;;;6.00;52.42;100081.59;5087928;28;20094;-69
2023/12/19 04:56:32;;;;;;;10.57;9.02;;;;;;;5.99;52.21;100077.25;5088377;28;20098;-66
2023/12/19 04:58:59;;;;;;;12.65;8.27;;;;;;;5.96;52.30;100079.94;5088062;28;20052;-66
2023/12/19 05:01:25;;;;;;;9.95;8.50;;;;;;;5.92;52.44;100073.03;5088275;28;20304;-66
2023/12/19 05:03:52;;;;;;;9.93;7.43;;;;;;;5.91;52.77;100076.56;5087894;28;20045;-66
2023/12/19 05:06:20;;;;;;;11.68;8.70;;;;;;;5.69;52.60;100047.28;5087953;28;20044;-66
2023/12/19 05:08:47;;;;;;;9.98;8.15;;;;;;;5.93;52.53;100074.75;5087943;28;20208;-66
2023/12/19 05:11:14;;;;;;;12.93;8.90;;;;;;;5.86;52.67;100067.91;5088190;28;20086;-67
2023/12/19 05:13:41;;;;;;;12.00;8.48;;;;;;;5.81;52.77;100067.16;5087935;28;20107;-66
2023/12/19 05:16:13;;;;;;;10.60;8.52;;;;;;;5.30;52.72;99978.13;5087847;28;20056;-66
2023/12/19 05:18:40;;;;;;;12.40;8.45;;;;;;;5.82;53.01;100068.91;5087731;28;20036;-66
2023/12/19 05:21:07;;;;;;;9.48;7.55;;;;;;;5.25;52.92;99980.00;5087438;28;20248;-66
2023/12/19 05:23:35;;;;;;;11.43;8.32;;;;;;;5.67;52.87;100037.72;5087331;28;20114;-68
2023/12/19 05:26:02;;;;;;;11.18;8.88;;;;;;;5.80;53.14;100069.84;5087562;28;20037;-66
2023/12/19 05:28:28;;;;;;;11.40;8.05;;;;;;;5.67;53.19;100075.41;5087515;28;20166;-66
2023/12/19 05:30:56;;;;;;;11.55;8.27;;;;;;;5.73;52.98;100069.13;5087156;28;20075;-68
2023/12/19 05:33:24;;;;;;;11.95;8.82;;;;;;;5.70;53.34;100064.81;5087419;28;20041;-68
2023/12/19 05:35:50;;;;;;;10.18;8.07;;;;;;;5.69;53.27;100067.47;5087341;28;20044;-69
2023/12/19 05:38:18;;;;;;;10.13;7.57;;;;;;;5.65;53.01;100071.94;5087320;28;20109;-68
2023/12/19 05:40:46;;;;;;;10.48;7.50;;;;;;;5.59;53.08;100069.44;5087003;28;20044;-69
2023/12/19 05:43:13;;;;;;;11.23;7.68;;;;;;;5.57;52.99;100070.38;5087141;28;20062;-68
2023/12/19 05:45:40;;;;;;;11.85;8.40;;;;;;;5.34;52.94;100029.72;5086685;28;20198;-67
2023/12/19 05:48:07;;;;;;;10.48;8.88;;;;;;;5.52;53.26;100064.38;5087080;28;20055;-67
2023/12/19 05:50:34;;;;;;;11.23;8.18;;;;;;;5.28;53.14;100031.63;5087378;28;20102;-67
2023/12/19 05:53:01;;;;;;;10.73;7.95;;;;;;;5.44;53.38;100077.69;5087156;28;20049;-67
2023/12/19 05:55:28;;;;;;;10.52;8.32;;;;;;;5.34;53.67;100077.03;5086978;28;20235;-67
2023/12/19 05:57:56;;;;;;;12.02;9.27;;;;;;;5.41;53.44;100077.75;5086658;28;20044;-67
2023/12/19 06:00:23;;;;;;;10.80;9.40;;;;;;;5.24;53.67;100054.50;5086853;28;20052;-67
2023/12/19 06:02:50;;;;;;;10.75;9.15;;;;;;;5.29;53.94;100081.53;5087006;28;20090;-67
2023/12/19 06:05:18;;;;;;;15.40;9.40;;;;;;;5.36;54.10;100077.00;5087140;28;20104;-67
2023/12/19 06:07:45;;;;;;;14.77;9.40;;;;;;;5.38;54.12;100085.72;5087089;28;20056;-67
2023/12/19 06:10:13;;;;;;;12.88;9.85;;;;;;;5.35;54.29;100081.41;5087031;28;20040;-67
2023/12/19 06:12:40;;;;;;;12.95;10.73;;;;;;;5.31;54.32;100085.00;5086375;28;20044;-67
2023/12/19 06:15:11;;;;;;;11.75;10.20;;;;;;;5.24;54.75;100080.78;5086345;28;20308;-67
2023/12/19 06:17:41;;;;;;;13.23;10.48;;;;;;;5.31;54.61;100098.13;5086268;28;20044;-67
2023/12/19 06:20:09;;;;;;;10.35;9.13;;;;;;;5.36;54.39;100087.50;5086184;28;20312;-67
2023/12/19 06:22:35;;;;;;;12.85;9.98;;;;;;;5.37;54.28;100086.63;5085976;28;20110;-67
2023/12/19 06:25:02;;;;;;;13.70;10.25;;;;;;;5.34;54.64;100097.19;5086641;28;20082;-67
2023/12/19 06:27:29;;;;;;;14.65;10.57;;;;;;;5.33;54.44;100104.22;5086730;28;20056;-67
2023/12/19 06:29:55;;;;;;;14.88;9.40;;;;;;;5.34;54.61;100105.09;5085951;28;20101;-67
2023/12/19 06:32:23;;;;;;;14.48;10.80;;;;;;;5.25;54.83;100105.28;5086248;28;20048;-67
2023/12/19 06:34:50;;;;;;;15.90;10.50;;;;;;;5.27;54.75;100112.25;5085893;28;20199;-67
2023/12/19 06:37:16;;;;;;;14.43;10.38;;;;;;;5.29;55.06;100118.31;5085786;28;20102;-66
2023/12/19 06:39:43;;;;;;;15.82;10.57;;;;;;;5.21;55.55;100116.75;5086144;28;20053;-67
2023/12/19 06:42:10;;;;;;;14.15;10.90;;;;;;;5.19;55.60;100102.78;5085816;28;20093;-67
2023/12/19 06:44:36;;;;;;;15.07;11.18;;;;;;;5.24;55.35;100107.06;5085949;28;20045;-67
2023/12/19 06:47:04;;;;;;;16.67;10.48;;;;;;;5.27;55.03;100098.22;5086010;28;20052;-67
2023/12/19 06:49:32;;;;;;;14.90;10.50;;;;;;;5.01;55.39;100064.63;5085717;28;20086;-67
2023/12/19 06:51:59;;;;;;;17.23;10.25;;;;;;;5.25;55.35;100100.91;5085544;28;20215;-67
2023/12/19 06:54:25;;;;;;;13.95;10.43;;;;;;;5.23;55.52;100086.06;5084781;28;20063;-67
2023/12/19 06:56:52;;;;;;;10.98;9.48;;;;;;;5.16;55.87;100087.09;5085422;28;20044;-67
2023/12/19 06:59:19;;;;;;;17.55;11.00;;;;;;;5.13;55.90;100085.38;5085597;28;20253;-67
2023/12/19 07:01:45;;;;;;;13.88;11.45;;;;;;;5.18;55.64;100088.78;5085913;28;20063;-67
2023/12/19 07:04:12;;;;;;;17.38;10.98;;;;;;;5.13;56.18;100081.00;5085813;28;20200;-67
2023/12/19 07:06:40;;;;;;;15.82;10.70;;;;;;;5.00;56.43;100078.66;5085960;28;20044;-67
2023/12/19 07:09:07;;;;;;;14.30;10.68;;;;;;;4.94;56.78;100082.28;5085731;28;20052;-67
2023/12/19 07:11:33;;;;;;;17.38;11.93;;;;;;;4.90;57.23;100074.50;5085733;28;20052;-67
2023/12/19 07:14:00;;;;;;;16.13;12.35;;;;;;;4.94;56.82;100081.44;5085593;28;20188;-66
2023/12/19 07:16:26;;;;;;;12.82;9.43;;;;;;;4.88;56.66;100076.25;5085407;28;20040;-67
2023/12/19 07:18:53;;;;;;;10.75;8.43;;;;;;;4.83;56.55;100068.47;5085438;28;20301;-67
2023/12/19 07:21:21;;;;;;;15.43;9.82;;;;;;;4.63;56.42;100041.75;5085371;28;20090;-67
2023/12/19 07:23:50;;;;;;;13.35;8.30;;;;;;;4.74;56.37;100064.28;5085350;28;20075;-67
2023/12/19 07:26:21;;;;;;;10.05;7.88;;;;;;;4.14;56.40;99969.22;5085860;28;20188;-67
2023/12/19 07:28:48;;;;;;;11.65;7.95;;;;;;;4.55;56.54;100068.16;5084501;28;20358;-67
2023/12/19 07:31:21;;;;;;;11.45;7.78;;;;;;;4.55;56.87;100073.41;5085508;28;20301;-67
2023/12/19 07:33:47;;;;;;;12.60;8.80;;;;;;;4.43;57.30;100065.78;5085290;28;20040;-68
2023/12/19 07:36:14;;;;;;;13.65;8.95;;;;;;;4.42;57.22;100059.66;5085193;28;20056;-68
2023/12/19 07:38:41;;;;;;;13.80;9.35;;;;;;;4.40;57.41;100064.06;5085435;28;20051;-68
2023/12/19 07:41:09;;;;;;;14.02;8.50;;;;;;;4.43;57.26;100057.91;5085435;28;20044;-68
2023/12/19 07:43:36;;;;;;;13.23;9.20;;;;;;;4.28;57.06;100035.44;5085337;28;20232;-68
2023/12/19 07:46:04;;;;;;;15.20;9.32;;;;;;;4.51;56.90;100057.75;5085452;28;20090;-68
2023/12/19 07:48:31;;;;;;;13.68;8.55;;;;;;;4.56;56.68;100055.91;5085612;28;20103;-68
2023/12/19 07:50:58;;;;;;;10.57;8.60;;;;;;;4.56;56.92;100059.38;5085521;28;20094;-68
2023/12/19 07:53:26;;;;;;;9.55;8.05;;;;;;;3.17;56.69;99815.47;5085010;28;20313;-68
2023/12/19 07:55:53;;;;;;;13.18;8.70;;;;;;;4.74;56.21;100061.66;5085035;28;20044;-68
2023/12/19 07:58:21;;;;;;;11.98;8.52;;;;;;;4.81;56.21;100062.38;5085082;28;20052;-68
2023/12/19 08:00:49;;;;;;;11.55;8.55;;;;;;;4.93;56.05;100066.56;5085510;28;20041;-68
2023/12/19 08:03:15;;;;;;;11.60;8.48;;;;;;;5.03;56.07;100060.22;5085477;28;20208;-68
2023/12/19 08:05:48;;;;;;;15.25;9.13;;;;;;;5.16;55.45;100047.66;5085272;28;20067;-68
2023/12/19 08:08:16;;;;;;;11.75;9.88;;;;;;;4.69;55.61;99979.47;5085533;28;20094;-68
2023/12/19 08:10:44;;;;;;;12.60;8.50;;;;;;;5.16;55.33;100014.38;5088895;28;20104;-68
2023/12/19 08:13:10;;;;;;;13.15;10.50;;;;;;;5.48;55.07;100046.94;5089156;28;20047;-69
2023/12/19 08:15:39;;;;;;;12.77;9.93;;;;;;;5.61;54.72;100035.22;5088882;28;20044;-68
2023/12/19 08:18:05;;;;;;;13.80;10.15;;;;;;;5.80;54.64;100040.91;5089386;28;20252;-68
2023/12/19 08:20:33;;;;;;;15.65;11.10;;;;;;;5.89;54.54;100033.66;5088530;28;20080;-68
2023/12/19 08:23:00;;;;;;;14.65;11.57;;;;;;;5.90;54.47;100040.63;5088215;28;20255;-69
2023/12/19 08:25:27;;;;;;;16.38;11.20;;;;;;;5.97;54.41;100036.94;5087424;28;20086;-68
2023/12/19 08:27:53;;;;;;;20.98;11.13;;;;;;;5.93;54.31;100035.28;5088540;28;20055;-69
2023/12/19 08:30:22;;;;;;;18.50;12.82;;;;;;;5.95;54.53;100046.66;5088547;28;20098;-69
2023/12/19 08:32:50;;;;;;;15.60;10.48;;;;;;;5.98;53.25;100043.06;5087699;28;20045;-68
2023/12/19 08:35:18;;;;;;;15.98;10.77;;;;;;;6.05;53.54;100034.97;5088779;28;20041;-69
2023/12/19 08:37:45;;;;;;;17.77;10.75;;;;;;;6.16;53.28;100026.81;5088339;28;20045;-69
2023/12/19 08:40:12;;;;;;;19.10;12.15;;;;;;;6.21;53.21;100030.19;5088339;28;20064;-69
2023/12/19 08:42:40;;;;;;;14.95;11.75;;;;;;;6.10;52.94;99998.88;5088368;28;20067;-68
2023/12/19 08:45:15;;;;;;;14.80;11.43;;;;;;;6.28;52.87;100022.97;5087865;28;20044;-68
2023/12/19 08:47:41;;;;;;;15.68;11.23;;;;;;;6.38;52.90;100020.06;5088395;28;20044;-68
2023/12/19 08:50:11;;;;;;;14.98;11.35;;;;;;;6.43;52.67;100012.03;5087957;28;20197;-67
2023/12/19 08:52:38;;;;;;;13.73;10.77;;;;;;;6.60;52.53;100003.66;5088213;28;20040;-68
2023/12/19 08:55:07;;;;;;;16.05;11.35;;;;;;;6.69;52.34;100008.66;5088304;28;20101;-68
2023/12/19 08:57:35;;;;;;;21.92;11.32;;;;;;;6.79;52.08;99996.06;5087881;28;20048;-68
2023/12/19 09:00:02;;;;;;;16.00;11.93;;;;;;;6.92;52.19;99997.47;5088042;28;20060;-68
2023/12/19 09:02:29;;;;;;;17.10;11.05;;;;;;;7.12;51.66;99988.94;5087920;28;20189;-68
2023/12/19 09:04:56;;;;;;;14.15;9.57;;;;;;;7.24;51.21;99980.66;5088092;28;20048;-68
2023/12/19 09:07:23;;;;;;;13.65;9.48;;;;;;;7.41;50.78;99975.75;5088080;28;20051;-68
2023/12/19 09:09:51;;;;;;;13.82;9.27;;;;;;;7.50;50.69;99975.44;5088009;28;20106;-68
2023/12/19 09:12:18;;;;;;;28.75;10.35;;;;;;;7.62;50.09;99969.75;5087303;28;20051;-68
2023/12/19 09:14:45;;;;;;;15.82;11.10;;;;;;;7.78;49.24;99937.59;5087659;28;20269;-68
2023/12/19 09:17:11;;;;;;;14.60;9.18;;;;;;;8.12;49.39;99959.25;5087665;28;20044;-68
2023/12/19 09:19:38;;;;;;;16.63;9.98;;;;;;;7.61;49.14;99875.72;5087496;28;20044;-70
2023/12/19 09:22:05;;;;;;;14.85;10.02;;;;;;;8.26;49.04;99958.75;5087182;28;20060;-69
2023/12/19 09:24:33;;;;;;;14.35;9.93;;;;;;;8.43;48.49;99958.13;5087436;28;20048;-69
2023/12/19 09:27:00;;;;;;;17.95;11.55;;;;;;;8.78;47.96;99962.09;5087304;28;20297;-69
2023/12/19 09:29:27;;;;;;;30.67;13.80;;;;;;;9.00;48.00;99942.69;5087636;28;20285;-69
2023/12/19 09:31:54;;;;;;;20.25;13.55;;;;;;;9.24;47.90;99942.69;5087311;28;20066;-69
2023/12/19 09:34:21;;;;;;;23.08;14.05;;;;;;;9.43;47.73;99933.09;5087500;28;20064;-69
2023/12/19 09:36:47;;;;;;;20.58;14.50;;;;;;;9.46;48.45;99934.75;5086937;28;20308;-69
2023/12/19 09:39:14;;;;;;;23.38;14.50;;;;;;;9.55;48.88;99939.66;5086936;28;20090;-69
2023/12/19 09:41:42;;;;;;;18.15;14.68;;;;;;;9.67;48.58;99947.09;5087283;28;20107;-69
2023/12/19 09:44:10;;;;;;;17.65;14.18;;;;;;;9.84;48.22;99933.13;5087128;28;20064;-69
2023/12/19 09:46:37;;;;;;;18.45;13.70;;;;;;;9.98;48.19;99935.19;5087234;28;20091;-69
2023/12/19 09:49:04;;;;;;;20.63;15.52;;;;;;;9.93;47.72;99930.09;5087127;28;20093;-69
2023/12/19 09:51:33;;;;;;;21.45;16.13;;;;;;;10.27;47.47;99929.47;5087039;28;20041;-69
2023/12/19 09:54:01;;;;;;;22.13;15.32;;;;;;;10.23;47.21;99917.28;5087067;28;20072;-69
2023/12/19 09:56:28;;;;;;;21.23;18.33;;;;;;;10.50;47.52;99917.81;5087028;28;20280;-69
2023/12/19 09:59:00;;;;;;;26.42;16.63;;;;;;;10.68;46.99;99913.47;5086889;28;20045;-69
2023/12/19 10:01:28;;;;;;;21.67;15.10;;;;;;;10.82;46.64;99900.44;5087103;28;20048;-69
2023/12/19 10:03:55;;;;;;;22.88;15.63;;;;;;;10.65;46.35;99882.66;5086771;28;20296;-69
2023/12/19 10:06:22;;;;;;;21.35;15.85;;;;;;;11.08;46.26;99901.84;5086775;28;20045;-69
2023/12/19 10:08:52;;;;;;;20.42;15.95;;;;;;;11.07;46.07;99882.44;5086645;28;20040;-68
2023/12/19 10:11:21;;;;;;;23.52;14.95;;;;;;;11.34;45.87;99903.22;5086382;28;20040;-67
2023/12/19 10:13:48;;;;;;;22.85;17.52;;;;;;;11.28;45.36;99900.88;5085930;28;20040;-67
2023/12/19 10:16:18;;;;;;;20.35;14.85;;;;;;;11.31;45.16;99896.28;5086207;28;20090;-67
2023/12/19 10:18:53;;;;;;;16.67;13.32;;;;;;;11.44;45.14;99894.72;5086620;28;20051;-68
2023/12/19 10:21:24;;;;;;;28.30;16.33;;;;;;;11.36;44.48;99875.69;5085932;28;20194;-68
2023/12/19 10:23:51;;;;;;;20.05;14.90;;;;;;;11.61;44.32;99887.72;5086280;28;20040;-68
2023/12/19 10:26:23;;;;;;;33.95;16.08;;;;;;;11.73;44.49;99887.09;5086235;28;20045;-67
2023/12/19 10:28:56;;;;;;;23.17;16.02;;;;;;;11.64;44.04;99879.59;5085666;28;20055;-69
2023/12/19 10:31:24;;;;;;;21.07;16.53;;;;;;;11.71;43.59;99873.03;5085515;28;20058;-67
2023/12/19 10:33:55;;;;;;;19.95;15.88;;;;;;;11.84;44.16;99868.81;5086058;28;20040;-68
2023/12/19 10:36:24;;;;;;;17.25;15.10;;;;;;;11.88;43.62;99857.94;5085695;28;20046;-67
2023/12/19 10:38:51;;;;;;;24.77;15.40;;;;;;;12.02;43.34;99859.91;5086051;28;20074;-67
2023/12/19 10:41:19;;;;;;;21.88;16.33;;;;;;;12.07;43.12;99847.22;5086221;28;20056;-68
2023/12/19 10:43:49;;;;;;;23.67;16.17;;;;;;;12.29;42.65;99835.47;5085530;28;20041;-68
2023/12/19 10:46:18;;;;;;;24.70;18.48;;;;;;;12.22;42.91;99834.94;5086093;28;20056;-68
2023/12/19 10:48:47;;;;;;;22.23;17.80;;;;;;;12.43;42.62;99827.59;5086029;28;20348;-68
2023/12/19 10:51:17;;;;;;;19.48;16.38;;;;;;;9.65;42.11;99363.22;5086187;28;20100;-67
2023/12/19 10:53:49;;;;;;;19.10;16.55;;;;;;;12.39;42.00;99800.31;5085787;28;20111;-68
2023/12/19 10:56:22;;;;;;;21.70;14.88;;;;;;;12.47;41.50;99813.19;5085601;28;20041;-68
2023/12/19 10:58:53;;;;;;;23.67;15.40;;;;;;;12.54;41.69;99811.03;5085559;28;20052;-69
2023/12/19 11:01:23;;;;;;;22.27;15.73;;;;;;;12.61;41.95;99799.97;5085962;28;20193;-69
2023/12/19 11:03:56;;;;;;;24.23;16.90;;;;;;;12.69;41.77;99799.56;5085638;28;20059;-68
2023/12/19 11:06:28;;;;;;;17.92;15.88;;;;;;;12.60;41.51;99789.44;5085394;28;20224;-69
2023/12/19 11:09:03;;;;;;;21.25;16.67;;;;;;;12.92;41.13;99782.28;5085671;28;20052;-68
2023/12/19 11:11:35;;;;;;;24.52;16.20;;;;;;;12.92;41.06;99750.34;5085708;28;20052;-69
2023/12/19 11:14:02;;;;;;;19.98;15.75;;;;;;;13.20;40.44;99771.72;5085288;28;20102;-69
2023/12/19 11:16:40;;;;;;;19.30;14.88;;;;;;;13.25;40.99;99731.53;5085271;28;20358;-69
2023/12/19 11:19:13;;;;;;;18.98;15.25;;;;;;;13.15;39.97;99753.38;5085656;28;20052;-69
2023/12/19 11:21:49;;;;;;;16.98;12.07;;;;;;;12.94;40.20;99749.31;5085650;28;20119;-69
2023/12/19 11:24:19;;;;;;;13.95;11.35;;;;;;;12.78;40.47;99741.38;5085391;28;20112;-69
2023/12/19 11:26:50;;;;;;;16.65;11.50;;;;;;;12.91;40.15;99744.16;5084442;28;20115;-69
2023/12/19 11:29:45;;;;;;;13.90;10.68;;;;;;;12.84;40.01;99738.34;5085070;28;20087;-69
2023/12/19 11:32:39;;;;;;;14.05;11.05;;;;;;;13.11;39.64;99727.88;5085162;28;20040;-69